sensor_id;sensor_type;location;lat;lon;timestamp;pressure;altitude;pressure_sealevel;temperature;humidity
10460;BME280;54412;51.206;6.888;2022-08-19T00:01:53;100613.44;;;22.73;60.65
10460;BME280;54412;51.206;6.888;2022-08-19T00:04:24;100626.75;;;22.74;60.33
10460;BME280;54412;51.206;6.888;2022-08-19T00:06:52;100619.44;;;22.67;60.57
10460;BME280;54412;51.206;6.888;2022-08-19T00:09:20;100619.94;;;22.53;60.94
10460;BME280;54412;51.206;6.888;2022-08-19T00:11:46;100624.97;;;22.65;60.52
10460;BME280;54412;51.206;6.888;2022-08-19T00:14:15;100625.22;;;22.72;60.39
10460;BME280;54412;51.206;6.888;2022-08-19T00:16:44;100619.69;;;22.73;60.21
10460;BME280;54412;51.206;6.888;2022-08-19T00:19:11;100626.53;;;22.68;60.44
10460;BME280;54412;51.206;6.888;2022-08-19T00:21:37;100618.53;;;22.58;60.96
10460;BME280;54412;51.206;6.888;2022-08-19T00:24:07;100618.38;;;22.60;60.69
10460;BME280;54412;51.206;6.888;2022-08-19T00:26:34;100609.38;;;22.69;60.47
10460;BME280;54412;51.206;6.888;2022-08-19T00:28:59;100616.16;;;22.55;60.74
10460;BME280;54412;51.206;6.888;2022-08-19T00:31:27;100626.00;;;22.37;61.40
10460;BME280;54412;51.206;6.888;2022-08-19T00:33:54;100623.75;;;22.33;61.50
10460;BME280;54412;51.206;6.888;2022-08-19T00:36:20;100619.88;;;22.45;61.37
10460;BME280;54412;51.206;6.888;2022-08-19T00:38:46;100615.16;;;22.29;61.48
10460;BME280;54412;51.206;6.888;2022-08-19T00:41:15;100622.09;;;22.32;61.46
10460;BME280;54412;51.206;6.888;2022-08-19T00:46:27;100626.75;;;22.12;62.11
10460;BME280;54412;51.206;6.888;2022-08-19T00:48:55;100617.47;;;22.24;61.69
10460;BME280;54412;51.206;6.888;2022-08-19T00:51:25;100613.47;;;22.28;61.35
10460;BME280;54412;51.206;6.888;2022-08-19T00:53:54;100619.06;;;22.17;61.55
10460;BME280;54412;51.206;6.888;2022-08-19T00:56:20;100610.31;;;22.15;61.75
10460;BME280;54412;51.206;6.888;2022-08-19T00:58:45;100613.53;;;22.19;61.70
10460;BME280;54412;51.206;6.888;2022-08-19T01:01:11;100604.94;;;22.15;61.72
10460;BME280;54412;51.206;6.888;2022-08-19T01:03:37;100615.09;;;22.21;61.74
10460;BME280;54412;51.206;6.888;2022-08-19T01:06:04;100614.81;;;22.15;61.86
10460;BME280;54412;51.206;6.888;2022-08-19T01:08:30;100619.13;;;22.08;61.95
10460;BME280;54412;51.206;6.888;2022-08-19T01:10:59;100619.66;;;22.11;62.02
10460;BME280;54412;51.206;6.888;2022-08-19T01:13:30;100620.19;;;22.15;61.49
10460;BME280;54412;51.206;6.888;2022-08-19T01:16:03;100617.81;;;22.12;61.66
10460;BME280;54412;51.206;6.888;2022-08-19T01:18:32;100621.63;;;22.09;61.94
10460;BME280;54412;51.206;6.888;2022-08-19T01:21:09;100621.59;;;22.19;61.63
10460;BME280;54412;51.206;6.888;2022-08-19T01:23:36;100620.56;;;22.02;62.05
10460;BME280;54412;51.206;6.888;2022-08-19T01:26:16;100611.16;;;22.16;61.80
10460;BME280;54412;51.206;6.888;2022-08-19T01:28:45;100619.06;;;22.17;61.38
10460;BME280;54412;51.206;6.888;2022-08-19T01:31:26;100617.94;;;21.93;62.28
10460;BME280;54412;51.206;6.888;2022-08-19T01:33:56;100614.75;;;22.07;61.73
10460;BME280;54412;51.206;6.888;2022-08-19T01:36:38;100612.97;;;21.98;62.31
10460;BME280;54412;51.206;6.888;2022-08-19T01:39:11;100603.25;;;22.14;62.01
10460;BME280;54412;51.206;6.888;2022-08-19T01:41:37;100610.97;;;22.00;62.19
10460;BME280;54412;51.206;6.888;2022-08-19T01:44:05;100611.69;;;22.02;62.26
10460;BME280;54412;51.206;6.888;2022-08-19T01:46:31;100606.03;;;21.95;62.20
10460;BME280;54412;51.206;6.888;2022-08-19T01:48:58;100613.69;;;21.90;62.30
10460;BME280;54412;51.206;6.888;2022-08-19T01:51:24;100610.47;;;21.87;62.25
10460;BME280;54412;51.206;6.888;2022-08-19T01:53:51;100614.47;;;22.00;61.95
10460;BME280;54412;51.206;6.888;2022-08-19T01:56:18;100607.44;;;21.99;62.16
10460;BME280;54412;51.206;6.888;2022-08-19T01:58:56;100603.28;;;21.87;62.48
10460;BME280;54412;51.206;6.888;2022-08-19T02:01:23;100596.59;;;21.91;62.22
10460;BME280;54412;51.206;6.888;2022-08-19T02:03:49;100594.50;;;22.12;61.38
10460;BME280;54412;51.206;6.888;2022-08-19T02:06:15;100600.66;;;21.95;62.02
10460;BME280;54412;51.206;6.888;2022-08-19T02:08:43;100597.19;;;21.85;62.38
10460;BME280;54412;51.206;6.888;2022-08-19T02:11:20;100590.84;;;21.76;62.39
10460;BME280;54412;51.206;6.888;2022-08-19T02:13:46;100603.63;;;21.65;62.94
10460;BME280;54412;51.206;6.888;2022-08-19T02:16:12;100599.84;;;21.58;63.03
10460;BME280;54412;51.206;6.888;2022-08-19T02:18:38;100595.53;;;21.74;62.93
10460;BME280;54412;51.206;6.888;2022-08-19T02:21:04;100600.47;;;21.79;63.05
10460;BME280;54412;51.206;6.888;2022-08-19T02:23:31;100613.47;;;21.74;62.62
10460;BME280;54412;51.206;6.888;2022-08-19T02:25:56;100611.22;;;21.79;62.52
10460;BME280;54412;51.206;6.888;2022-08-19T02:28:22;100607.97;;;21.66;62.97
10460;BME280;54412;51.206;6.888;2022-08-19T02:30:48;100599.88;;;21.75;63.03
10460;BME280;54412;51.206;6.888;2022-08-19T02:33:14;100598.59;;;21.52;63.89
10460;BME280;54412;51.206;6.888;2022-08-19T02:35:45;100603.50;;;21.57;63.45
10460;BME280;54412;51.206;6.888;2022-08-19T02:38:11;100607.78;;;21.77;62.85
10460;BME280;54412;51.206;6.888;2022-08-19T02:40:59;100607.59;;;21.61;63.19
10460;BME280;54412;51.206;6.888;2022-08-19T02:43:29;100619.72;;;21.65;63.46
10460;BME280;54412;51.206;6.888;2022-08-19T02:45:55;100623.69;;;21.61;62.92
10460;BME280;54412;51.206;6.888;2022-08-19T02:48:24;100623.69;;;21.61;63.55
10460;BME280;54412;51.206;6.888;2022-08-19T02:50:52;100632.59;;;21.61;62.96
10460;BME280;54412;51.206;6.888;2022-08-19T02:53:22;100635.53;;;21.68;62.79
10460;BME280;54412;51.206;6.888;2022-08-19T02:55:50;100634.97;;;21.64;62.84
10460;BME280;54412;51.206;6.888;2022-08-19T02:58:18;100638.91;;;21.70;63.10
10460;BME280;54412;51.206;6.888;2022-08-19T03:00:54;100638.63;;;21.73;62.62
10460;BME280;54412;51.206;6.888;2022-08-19T03:03:21;100630.84;;;21.70;62.87
10460;BME280;54412;51.206;6.888;2022-08-19T03:05:47;100634.53;;;21.78;62.50
10460;BME280;54412;51.206;6.888;2022-08-19T03:08:15;100629.75;;;21.63;62.78
10460;BME280;54412;51.206;6.888;2022-08-19T03:10:47;100629.84;;;21.44;63.06
10460;BME280;54412;51.206;6.888;2022-08-19T03:13:17;100626.88;;;21.37;63.73
10460;BME280;54412;51.206;6.888;2022-08-19T03:15:46;100629.16;;;21.32;63.52
10460;BME280;54412;51.206;6.888;2022-08-19T03:18:13;100631.25;;;21.48;63.10
10460;BME280;54412;51.206;6.888;2022-08-19T03:20:48;100624.16;;;21.47;63.52
10460;BME280;54412;51.206;6.888;2022-08-19T03:23:15;100626.53;;;21.50;63.11
10460;BME280;54412;51.206;6.888;2022-08-19T03:25:47;100628.81;;;21.45;63.07
10460;BME280;54412;51.206;6.888;2022-08-19T03:28:15;100624.88;;;21.39;63.13
10460;BME280;54412;51.206;6.888;2022-08-19T03:30:43;100622.59;;;21.44;63.26
10460;BME280;54412;51.206;6.888;2022-08-19T03:33:22;100619.25;;;21.33;63.51
10460;BME280;54412;51.206;6.888;2022-08-19T03:35:59;100627.16;;;21.44;63.16
10460;BME280;54412;51.206;6.888;2022-08-19T03:38:25;100630.09;;;21.50;62.81
10460;BME280;54412;51.206;6.888;2022-08-19T03:40:50;100626.84;;;21.47;63.25
10460;BME280;54412;51.206;6.888;2022-08-19T03:43:16;100636.72;;;21.46;62.97
10460;BME280;54412;51.206;6.888;2022-08-19T03:45:43;100634.34;;;21.34;63.54
10460;BME280;54412;51.206;6.888;2022-08-19T03:48:09;100630.66;;;21.44;63.08
10460;BME280;54412;51.206;6.888;2022-08-19T03:50:39;100635.69;;;21.66;62.56
10460;BME280;54412;51.206;6.888;2022-08-19T03:53:06;100644.59;;;21.57;63.19
10460;BME280;54412;51.206;6.888;2022-08-19T03:55:40;100648.31;;;21.47;63.39
10460;BME280;54412;51.206;6.888;2022-08-19T03:58:06;100645.06;;;21.43;63.62
10460;BME280;54412;51.206;6.888;2022-08-19T04:00:32;100644.28;;;21.33;64.40
10460;BME280;54412;51.206;6.888;2022-08-19T04:02:59;100630.16;;;21.31;64.10
10460;BME280;54412;51.206;6.888;2022-08-19T04:05:28;100638.78;;;21.16;64.94
10460;BME280;54412;51.206;6.888;2022-08-19T04:07:54;100642.59;;;21.04;65.31
10460;BME280;54412;51.206;6.888;2022-08-19T04:10:22;100639.06;;;21.22;64.66
10460;BME280;54412;51.206;6.888;2022-08-19T04:12:49;100639.88;;;21.23;64.47
10460;BME280;54412;51.206;6.888;2022-08-19T04:15:15;100635.81;;;21.19;65.04
10460;BME280;54412;51.206;6.888;2022-08-19T04:17:40;100646.97;;;21.14;64.80
10460;BME280;54412;51.206;6.888;2022-08-19T04:20:07;100641.34;;;21.17;64.73
10460;BME280;54412;51.206;6.888;2022-08-19T04:22:33;100639.16;;;21.40;63.83
10460;BME280;54412;51.206;6.888;2022-08-19T04:24:58;100638.47;;;21.28;63.87
10460;BME280;54412;51.206;6.888;2022-08-19T04:27:24;100638.50;;;21.19;64.32
10460;BME280;54412;51.206;6.888;2022-08-19T04:29:49;100647.81;;;21.05;65.05
10460;BME280;54412;51.206;6.888;2022-08-19T04:32:15;100642.91;;;21.01;64.84
10460;BME280;54412;51.206;6.888;2022-08-19T04:34:41;100649.66;;;21.14;64.45
10460;BME280;54412;51.206;6.888;2022-08-19T04:37:08;100652.47;;;20.94;65.02
10460;BME280;54412;51.206;6.888;2022-08-19T04:39:38;100648.94;;;21.22;64.03
10460;BME280;54412;51.206;6.888;2022-08-19T04:42:23;100648.22;;;21.10;64.25
10460;BME280;54412;51.206;6.888;2022-08-19T04:45:13;100650.34;;;21.07;64.37
10460;BME280;54412;51.206;6.888;2022-08-19T04:47:42;100661.69;;;21.01;64.53
10460;BME280;54412;51.206;6.888;2022-08-19T04:50:10;100666.44;;;21.07;63.94
10460;BME280;54412;51.206;6.888;2022-08-19T04:52:38;100667.97;;;21.28;63.24
10460;BME280;54412;51.206;6.888;2022-08-19T04:55:09;100663.47;;;20.91;64.68
10460;BME280;54412;51.206;6.888;2022-08-19T04:57:36;100657.97;;;20.83;64.80
10460;BME280;54412;51.206;6.888;2022-08-19T05:00:08;100659.09;;;20.90;64.72
10460;BME280;54412;51.206;6.888;2022-08-19T05:02:34;100673.47;;;20.98;64.53
10460;BME280;54412;51.206;6.888;2022-08-19T05:04:59;100665.44;;;20.98;64.62
10460;BME280;54412;51.206;6.888;2022-08-19T05:07:26;100679.59;;;21.00;64.54
10460;BME280;54412;51.206;6.888;2022-08-19T05:09:52;100677.31;;;20.96;64.74
10460;BME280;54412;51.206;6.888;2022-08-19T05:12:18;100688.59;;;20.90;64.92
10460;BME280;54412;51.206;6.888;2022-08-19T05:14:45;100694.78;;;20.71;65.54
10460;BME280;54412;51.206;6.888;2022-08-19T05:17:13;100690.56;;;20.78;65.19
10460;BME280;54412;51.206;6.888;2022-08-19T05:19:39;100688.03;;;20.86;64.97
10460;BME280;54412;51.206;6.888;2022-08-19T05:22:23;100701.31;;;21.07;64.52
10460;BME280;54412;51.206;6.888;2022-08-19T05:24:58;100703.28;;;20.95;64.81
10460;BME280;54412;51.206;6.888;2022-08-19T05:27:24;100702.88;;;21.00;65.00
10460;BME280;54412;51.206;6.888;2022-08-19T05:29:50;100709.59;;;20.75;65.84
10460;BME280;54412;51.206;6.888;2022-08-19T05:32:15;100716.09;;;20.82;65.61
10460;BME280;54412;51.206;6.888;2022-08-19T05:34:41;100708.25;;;21.09;64.63
10460;BME280;54412;51.206;6.888;2022-08-19T05:37:07;100707.41;;;20.99;65.21
10460;BME280;54412;51.206;6.888;2022-08-19T05:39:36;100711.63;;;21.21;64.89
10460;BME280;54412;51.206;6.888;2022-08-19T05:42:09;100709.50;;;21.15;64.87
10460;BME280;54412;51.206;6.888;2022-08-19T05:44:42;100706.38;;;21.29;64.49
10460;BME280;54412;51.206;6.888;2022-08-19T05:47:11;100710.59;;;21.41;64.60
10460;BME280;54412;51.206;6.888;2022-08-19T05:49:38;100712.72;;;21.56;63.89
10460;BME280;54412;51.206;6.888;2022-08-19T05:52:09;100710.59;;;21.60;64.02
10460;BME280;54412;51.206;6.888;2022-08-19T05:54:39;100706.44;;;21.75;64.13
10460;BME280;54412;51.206;6.888;2022-08-19T05:57:07;100698.53;;;21.73;64.10
10460;BME280;54412;51.206;6.888;2022-08-19T05:59:33;100703.34;;;21.70;64.44
10460;BME280;54412;51.206;6.888;2022-08-19T06:02:02;100695.28;;;21.79;64.41
10460;BME280;54412;51.206;6.888;2022-08-19T06:04:29;100690.03;;;21.78;64.56
10460;BME280;54412;51.206;6.888;2022-08-19T06:06:55;100698.25;;;21.76;64.89
10460;BME280;54412;51.206;6.888;2022-08-19T06:09:22;100705.88;;;21.81;64.16
10460;BME280;54412;51.206;6.888;2022-08-19T06:11:58;100700.50;;;21.71;65.09
10460;BME280;54412;51.206;6.888;2022-08-19T06:14:30;100702.06;;;21.74;65.53
10460;BME280;54412;51.206;6.888;2022-08-19T06:16:57;100704.75;;;21.74;65.13
10460;BME280;54412;51.206;6.888;2022-08-19T06:19:25;100716.22;;;21.57;65.88
10460;BME280;54412;51.206;6.888;2022-08-19T06:21:52;100712.66;;;21.66;65.83
10460;BME280;54412;51.206;6.888;2022-08-19T06:24:23;100702.78;;;21.66;65.71
10460;BME280;54412;51.206;6.888;2022-08-19T06:26:52;100697.31;;;21.58;66.42
10460;BME280;54412;51.206;6.888;2022-08-19T06:29:21;100706.31;;;21.67;65.88
10460;BME280;54412;51.206;6.888;2022-08-19T06:31:50;100697.56;;;21.65;66.53
10460;BME280;54412;51.206;6.888;2022-08-19T06:34:17;100707.13;;;21.77;66.11
10460;BME280;54412;51.206;6.888;2022-08-19T06:36:51;100705.75;;;21.73;66.43
10460;BME280;54412;51.206;6.888;2022-08-19T06:39:23;100707.13;;;21.77;66.28
10460;BME280;54412;51.206;6.888;2022-08-19T06:41:54;100702.91;;;21.74;66.29
10460;BME280;54412;51.206;6.888;2022-08-19T06:44:23;100708.31;;;21.55;67.36
10460;BME280;54412;51.206;6.888;2022-08-19T06:46:49;100707.59;;;21.72;66.68
10460;BME280;54412;51.206;6.888;2022-08-19T06:49:16;100696.25;;;21.88;66.50
10460;BME280;54412;51.206;6.888;2022-08-19T06:51:45;100699.78;;;21.89;66.42
10460;BME280;54412;51.206;6.888;2022-08-19T06:54:13;100703.03;;;21.92;67.01
10460;BME280;54412;51.206;6.888;2022-08-19T06:56:39;100707.91;;;22.06;66.34
10460;BME280;54412;51.206;6.888;2022-08-19T06:59:15;100706.38;;;22.04;66.23
10460;BME280;54412;51.206;6.888;2022-08-19T07:01:47;100707.22;;;22.04;66.28
10460;BME280;54412;51.206;6.888;2022-08-19T07:04:17;100708.63;;;22.08;66.50
10460;BME280;54412;51.206;6.888;2022-08-19T07:06:44;100706.47;;;22.12;66.64
10460;BME280;54412;51.206;6.888;2022-08-19T07:09:13;100706.31;;;22.13;66.45
10460;BME280;54412;51.206;6.888;2022-08-19T07:11:45;100717.53;;;22.09;66.45
10460;BME280;54412;51.206;6.888;2022-08-19T07:14:12;100709.34;;;22.01;67.19
10460;BME280;54412;51.206;6.888;2022-08-19T07:16:40;100716.69;;;21.99;66.93
10460;BME280;54412;51.206;6.888;2022-08-19T07:19:05;100721.31;;;22.16;66.46
10460;BME280;54412;51.206;6.888;2022-08-19T07:21:32;100722.19;;;22.07;67.00
10460;BME280;54412;51.206;6.888;2022-08-19T07:23:59;100730.22;;;22.16;66.04
10460;BME280;54412;51.206;6.888;2022-08-19T07:26:32;100728.13;;;22.10;66.19
10460;BME280;54412;51.206;6.888;2022-08-19T07:28:59;100739.38;;;22.23;66.25
10460;BME280;54412;51.206;6.888;2022-08-19T07:31:28;100743.19;;;22.21;66.38
10460;BME280;54412;51.206;6.888;2022-08-19T07:33:56;100743.22;;;22.11;66.29
10460;BME280;54412;51.206;6.888;2022-08-19T07:36:28;100750.56;;;22.19;66.26
10460;BME280;54412;51.206;6.888;2022-08-19T07:39:00;100748.69;;;22.29;66.31
10460;BME280;54412;51.206;6.888;2022-08-19T07:41:28;100755.59;;;22.31;66.07
10460;BME280;54412;51.206;6.888;2022-08-19T07:43:58;100764.19;;;22.35;65.79
10460;BME280;54412;51.206;6.888;2022-08-19T07:46:33;100762.69;;;22.32;65.77
10460;BME280;54412;51.206;6.888;2022-08-19T07:49:00;100766.31;;;22.41;65.82
10460;BME280;54412;51.206;6.888;2022-08-19T07:51:27;100769.41;;;22.36;65.46
10460;BME280;54412;51.206;6.888;2022-08-19T07:53:54;100769.41;;;22.36;65.89
10460;BME280;54412;51.206;6.888;2022-08-19T07:56:21;100772.66;;;22.40;65.41
10460;BME280;54412;51.206;6.888;2022-08-19T07:58:50;100775.69;;;22.27;65.93
10460;BME280;54412;51.206;6.888;2022-08-19T08:01:24;100787.19;;;22.56;65.15
10460;BME280;54412;51.206;6.888;2022-08-19T08:03:52;100788.78;;;22.76;64.57
10460;BME280;54412;51.206;6.888;2022-08-19T08:06:38;100777.56;;;22.81;64.62
10460;BME280;54412;51.206;6.888;2022-08-19T08:09:32;100779.28;;;23.00;64.11
10460;BME280;54412;51.206;6.888;2022-08-19T08:12:20;100776.59;;;23.00;64.34
10460;BME280;54412;51.206;6.888;2022-08-19T08:14:54;100775.13;;;23.23;63.46
10460;BME280;54412;51.206;6.888;2022-08-19T08:17:24;100782.31;;;23.32;63.53
10460;BME280;54412;51.206;6.888;2022-08-19T08:19:50;100778.31;;;23.53;63.23
10460;BME280;54412;51.206;6.888;2022-08-19T08:22:19;100775.44;;;23.55;62.82
10460;BME280;54412;51.206;6.888;2022-08-19T08:25:15;100779.59;;;23.67;62.67
10460;BME280;54412;51.206;6.888;2022-08-19T08:27:44;100779.75;;;23.91;61.89
10460;BME280;54412;51.206;6.888;2022-08-19T08:30:24;100781.38;;;24.27;60.43
10460;BME280;54412;51.206;6.888;2022-08-19T08:32:51;100785.97;;;24.35;60.34
10460;BME280;54412;51.206;6.888;2022-08-19T08:35:23;100781.59;;;24.34;60.04
10460;BME280;54412;51.206;6.888;2022-08-19T08:37:52;100786.44;;;24.64;59.68
10460;BME280;54412;51.206;6.888;2022-08-19T08:40:30;100783.81;;;24.80;59.24
10460;BME280;54412;51.206;6.888;2022-08-19T08:43:26;100777.81;;;24.60;59.68
10460;BME280;54412;51.206;6.888;2022-08-19T08:49:27;100778.94;;;24.92;58.18
10460;BME280;54412;51.206;6.888;2022-08-19T08:52:11;100786.41;;;24.98;57.87
10460;BME280;54412;51.206;6.888;2022-08-19T08:54:46;100781.00;;;24.98;57.68
10460;BME280;54412;51.206;6.888;2022-08-19T08:57:20;100771.31;;;24.79;58.11
10460;BME280;54412;51.206;6.888;2022-08-19T08:59:51;100777.44;;;24.97;57.55
10460;BME280;54412;51.206;6.888;2022-08-19T09:02:19;100773.44;;;25.09;57.28
10460;BME280;54412;51.206;6.888;2022-08-19T09:04:45;100773.63;;;25.24;56.97
10460;BME280;54412;51.206;6.888;2022-08-19T09:10:43;100775.94;;;25.03;57.24
10460;BME280;54412;51.206;6.888;2022-08-19T09:13:31;100777.81;;;25.10;56.90
10460;BME280;54412;51.206;6.888;2022-08-19T09:16:12;100773.03;;;24.88;57.16
10460;BME280;54412;51.206;6.888;2022-08-19T09:18:47;100774.06;;;24.87;57.12
10460;BME280;54412;51.206;6.888;2022-08-19T09:21:15;100776.59;;;24.89;57.16
10460;BME280;54412;51.206;6.888;2022-08-19T09:23:41;100768.75;;;24.69;57.43
10460;BME280;54412;51.206;6.888;2022-08-19T09:26:15;100772.78;;;24.65;57.67
10460;BME280;54412;51.206;6.888;2022-08-19T09:28:49;100772.44;;;24.68;57.28
10460;BME280;54412;51.206;6.888;2022-08-19T09:31:22;100774.19;;;24.77;57.35
10460;BME280;54412;51.206;6.888;2022-08-19T09:33:49;100776.72;;;24.71;57.63
10460;BME280;54412;51.206;6.888;2022-08-19T09:36:19;100784.84;;;24.87;56.92
10460;BME280;54412;51.206;6.888;2022-08-19T09:38:46;100779.13;;;24.82;54.89
10460;BME280;54412;51.206;6.888;2022-08-19T09:41:17;100775.78;;;25.04;54.97
10460;BME280;54412;51.206;6.888;2022-08-19T09:43:47;100773.63;;;25.08;54.63
10460;BME280;54412;51.206;6.888;2022-08-19T09:46:14;100778.84;;;25.33;54.10
10460;BME280;54412;51.206;6.888;2022-08-19T09:48:42;100776.97;;;25.26;53.15
10460;BME280;54412;51.206;6.888;2022-08-19T09:51:14;100769.63;;;25.52;52.85
10460;BME280;54412;51.206;6.888;2022-08-19T09:53:46;100769.41;;;25.85;52.75
10460;BME280;54412;51.206;6.888;2022-08-19T09:56:13;100774.28;;;25.98;51.17
10460;BME280;54412;51.206;6.888;2022-08-19T09:58:40;100778.53;;;26.09;50.43
10460;BME280;54412;51.206;6.888;2022-08-19T10:01:07;100768.56;;;26.09;50.40
10460;BME280;54412;51.206;6.888;2022-08-19T10:03:35;100776.19;;;25.98;50.86
10460;BME280;54412;51.206;6.888;2022-08-19T10:06:04;100774.41;;;26.29;50.22
10460;BME280;54412;51.206;6.888;2022-08-19T10:08:36;100779.09;;;26.43;49.79
10460;BME280;54412;51.206;6.888;2022-08-19T10:11:03;100777.78;;;26.31;49.32
10460;BME280;54412;51.206;6.888;2022-08-19T10:13:31;100773.19;;;26.39;49.13
10460;BME280;54412;51.206;6.888;2022-08-19T10:16:12;100774.22;;;26.85;49.04
10460;BME280;54412;51.206;6.888;2022-08-19T10:18:40;100765.84;;;27.25;48.44
10460;BME280;54412;51.206;6.888;2022-08-19T10:21:18;100765.41;;;27.59;47.69
10460;BME280;54412;51.206;6.888;2022-08-19T10:23:49;100754.91;;;27.78;46.98
10460;BME280;54412;51.206;6.888;2022-08-19T10:26:20;100754.84;;;27.87;46.77
10460;BME280;54412;51.206;6.888;2022-08-19T10:28:46;100748.44;;;27.65;47.33
10460;BME280;54412;51.206;6.888;2022-08-19T10:31:19;100747.59;;;27.42;47.26
10460;BME280;54412;51.206;6.888;2022-08-19T10:33:47;100750.53;;;27.55;48.12
10460;BME280;54412;51.206;6.888;2022-08-19T10:36:19;100750.13;;;27.80;47.69
10460;BME280;54412;51.206;6.888;2022-08-19T10:38:49;100750.59;;;27.84;46.15
10460;BME280;54412;51.206;6.888;2022-08-19T10:41:23;100754.47;;;27.67;46.22
10460;BME280;54412;51.206;6.888;2022-08-19T10:43:54;100751.50;;;27.62;46.00
10460;BME280;54412;51.206;6.888;2022-08-19T10:46:23;100745.53;;;27.66;46.38
10460;BME280;54412;51.206;6.888;2022-08-19T10:48:49;100756.13;;;27.91;46.21
10460;BME280;54412;51.206;6.888;2022-08-19T10:51:16;100761.94;;;26.97;47.14
10460;BME280;54412;51.206;6.888;2022-08-19T10:54:02;100756.09;;;27.16;46.97
10460;BME280;54412;51.206;6.888;2022-08-19T10:56:29;100766.00;;;27.24;46.70
10460;BME280;54412;51.206;6.888;2022-08-19T10:59:15;100761.53;;;26.86;47.57
10460;BME280;54412;51.206;6.888;2022-08-19T11:01:43;100766.84;;;26.24;48.58
10460;BME280;54412;51.206;6.888;2022-08-19T11:04:10;100764.81;;;26.65;47.86
10460;BME280;54412;51.206;6.888;2022-08-19T11:06:41;100752.81;;;27.21;46.88
10460;BME280;54412;51.206;6.888;2022-08-19T11:09:09;100755.81;;;27.03;46.34
10460;BME280;54412;51.206;6.888;2022-08-19T11:11:37;100751.59;;;26.78;47.37
10460;BME280;54412;51.206;6.888;2022-08-19T11:14:11;100762.97;;;26.57;48.08
10460;BME280;54412;51.206;6.888;2022-08-19T11:16:37;100760.66;;;26.46;48.16
10460;BME280;54412;51.206;6.888;2022-08-19T11:19:06;100758.41;;;26.58;47.73
10460;BME280;54412;51.206;6.888;2022-08-19T11:21:38;100755.00;;;26.64;47.79
10460;BME280;54412;51.206;6.888;2022-08-19T11:24:11;100759.34;;;26.42;47.95
10460;BME280;54412;51.206;6.888;2022-08-19T11:26:39;100744.53;;;26.61;48.75
10460;BME280;54412;51.206;6.888;2022-08-19T11:29:07;100751.81;;;27.22;47.13
10460;BME280;54412;51.206;6.888;2022-08-19T11:31:38;100744.97;;;27.71;45.76
10460;BME280;54412;51.206;6.888;2022-08-19T11:34:08;100753.19;;;28.00;45.37
10460;BME280;54412;51.206;6.888;2022-08-19T11:36:38;100747.25;;;27.82;45.20
10460;BME280;54412;51.206;6.888;2022-08-19T11:39:07;100739.06;;;28.19;44.36
10460;BME280;54412;51.206;6.888;2022-08-19T11:41:34;100733.16;;;28.45;43.86
10460;BME280;54412;51.206;6.888;2022-08-19T11:43:59;100734.94;;;28.67;42.64
10460;BME280;54412;51.206;6.888;2022-08-19T11:46:26;100736.47;;;28.55;42.95
10460;BME280;54412;51.206;6.888;2022-08-19T11:48:59;100737.09;;;28.28;43.23
10460;BME280;54412;51.206;6.888;2022-08-19T11:51:27;100733.78;;;27.88;44.20
10460;BME280;54412;51.206;6.888;2022-08-19T11:53:56;100726.38;;;27.68;45.32
10460;BME280;54412;51.206;6.888;2022-08-19T11:56:23;100730.84;;;28.27;43.94
10460;BME280;54412;51.206;6.888;2022-08-19T11:58:50;100733.22;;;28.66;42.67
10460;BME280;54412;51.206;6.888;2022-08-19T12:01:20;100728.69;;;28.52;42.67
10460;BME280;54412;51.206;6.888;2022-08-19T12:03:49;100720.34;;;28.53;42.98
10460;BME280;54412;51.206;6.888;2022-08-19T12:06:20;100724.63;;;28.48;42.69
10460;BME280;54412;51.206;6.888;2022-08-19T12:08:49;100717.97;;;28.50;42.20
10460;BME280;54412;51.206;6.888;2022-08-19T12:11:15;100726.53;;;28.62;41.45
10460;BME280;54412;51.206;6.888;2022-08-19T12:13:41;100721.22;;;28.75;40.46
10460;BME280;54412;51.206;6.888;2022-08-19T12:16:15;100714.84;;;28.82;40.45
10460;BME280;54412;51.206;6.888;2022-08-19T12:18:42;100718.66;;;29.09;40.09
10460;BME280;54412;51.206;6.888;2022-08-19T12:21:16;100722.84;;;29.26;39.52
10460;BME280;54412;51.206;6.888;2022-08-19T12:23:43;100720.25;;;29.18;39.77
10460;BME280;54412;51.206;6.888;2022-08-19T12:26:11;100726.13;;;28.36;40.51
10460;BME280;54412;51.206;6.888;2022-08-19T12:28:38;100719.38;;;28.46;40.80
10460;BME280;54412;51.206;6.888;2022-08-19T12:31:04;100719.31;;;28.25;41.75
10460;BME280;54412;51.206;6.888;2022-08-19T12:33:31;100710.81;;;28.28;42.35
10460;BME280;54412;51.206;6.888;2022-08-19T12:36:03;100706.63;;;27.97;42.66
10460;BME280;54412;51.206;6.888;2022-08-19T12:38:29;100707.16;;;28.07;41.70
10460;BME280;54412;51.206;6.888;2022-08-19T12:40:55;100705.38;;;28.28;41.04
10460;BME280;54412;51.206;6.888;2022-08-19T12:43:20;100711.56;;;28.08;41.88
10460;BME280;54412;51.206;6.888;2022-08-19T12:45:47;100714.28;;;28.22;41.58
10460;BME280;54412;51.206;6.888;2022-08-19T12:48:13;100704.25;;;28.88;39.52
10460;BME280;54412;51.206;6.888;2022-08-19T12:50:41;100706.75;;;29.25;38.69
10460;BME280;54412;51.206;6.888;2022-08-19T12:53:07;100704.72;;;29.33;38.68
10460;BME280;54412;51.206;6.888;2022-08-19T12:55:33;100710.28;;;29.46;38.92
10460;BME280;54412;51.206;6.888;2022-08-19T12:57:59;100706.22;;;29.36;36.84
10460;BME280;54412;51.206;6.888;2022-08-19T13:00:27;100712.84;;;28.41;38.19
10460;BME280;54412;51.206;6.888;2022-08-19T13:02:53;100698.06;;;28.58;38.81
10460;BME280;54412;51.206;6.888;2022-08-19T13:05:27;100700.44;;;28.17;40.67
10460;BME280;54412;51.206;6.888;2022-08-19T13:07:56;100704.38;;;28.15;40.53
10460;BME280;54412;51.206;6.888;2022-08-19T13:10:25;100697.25;;;27.84;41.95
10460;BME280;54412;51.206;6.888;2022-08-19T13:12:53;100692.94;;;27.75;41.96